Richard E. Waugh — WDB8734 — position and weather

sailwx.info

Track history (hours):
 
Tides and Currents Weather Stations Pressure Air Temp Water Temp Dewpoint Dewpoint Depression Visibility Wind Speed Wind Dir Waves Ship Positions

Richard E. Waugh

Owner: Ingram Barge Company LLC, Nashville, TN. More information available from US FCC via Universal Licensing System and Coast Guard Vessel Documentation Center.

Last reported at 2017-Sep-19 18:55 UTC. Time now 2017-Sep-25 00:36 UTC.
Position N 41°07' W 090°58'.

Length 48 m; draft 3 m.

Type: Towing. MMSI: 366963390.

Date/timePositionNaut miles runAvg speedWind from/ knotsBaromVisibWave heightAir tempDewpointWater temp
2017-Sep-19 18:55N 41°07' W 090°58'2 3.7
2017-Sep-19 18:30N 41°06' W 090°57'3 3.5
2017-Sep-19 17:45N 41°04' W 090°57'1 3.6
2017-Sep-19 17:26N 41°02' W 090°56'2 3.7
2017-Sep-19 16:58N 41°01' W 090°57'2 3.5
2017-Sep-19 16:30N 40°59' W 090°57'2 3.3
2017-Sep-19 16:00N 40°58' W 090°57'2 4.0
2017-Sep-19 15:30N 40°56' W 090°58'2 3.8
2017-Sep-19 15:00N 40°55' W 090°60'2 3.9
2017-Sep-19 14:30N 40°53' W 091°01'0 0.2
2017-Sep-19 14:00N 40°53' W 091°01'0 0.0
2017-Sep-19 13:30N 40°53' W 091°01'0 0.0
2017-Sep-19 13:00N 40°53' W 091°01'0 0.0
2017-Sep-19 12:30N 40°53' W 091°01'0 0.0
2017-Sep-19 12:00N 40°53' W 091°01'0 0.0
2017-Sep-19 11:30N 40°53' W 091°01'0 0.0
2017-Sep-19 11:00N 40°53' W 091°01'0 0.0
2017-Sep-19 10:30N 40°53' W 091°01'  
2017-Sep-14 04:14N 38°55' W 090°17'1 5.5
2017-Sep-14 04:00N 38°55' W 090°19'3 5.9
2017-Sep-14 03:30N 38°57' W 090°22'3 6.0
2017-Sep-14 03:00N 38°58' W 090°26'3 5.3
2017-Sep-14 02:30N 38°58' W 090°29'2 4.3
2017-Sep-14 02:00N 38°57' W 090°32'1 0.2
2017-Sep-13 17:47N 38°58' W 090°33'0 0.1
2017-Sep-13 17:30N 38°58' W 090°33'0 0.0
2017-Sep-13 17:00N 38°58' W 090°33'0 0.4
2017-Sep-13 16:30N 38°58' W 090°33'2 4.0
2017-Sep-13 16:00N 38°57' W 090°31'2 4.7
2017-Sep-13 15:30N 38°58' W 090°28'2 4.7
2017-Sep-13 15:00N 38°58' W 090°25'1 1.6
2017-Sep-13 14:30N 38°58' W 090°24'0 0.0
2017-Sep-13 14:00N 38°58' W 090°24'0 0.0
2017-Sep-13 13:30N 38°58' W 090°24'0 0.1
2017-Sep-13 13:00N 38°58' W 090°24'0 0.6
2017-Sep-13 12:30N 38°58' W 090°24'1 2.2
2017-Sep-13 12:00N 38°57' W 090°22'1 2.5
2017-Sep-13 11:30N 38°57' W 090°21'2 2.6
2017-Sep-13 10:53N 38°56' W 090°19'1 2.5
2017-Sep-13 10:30N 38°55' W 090°18'  
2017-Sep-10 21:40N 38°55' W 090°17'1 5.1
2017-Sep-10 21:30N 38°55' W 090°18'2 4.9
2017-Sep-10 21:00N 38°57' W 090°21'3 5.2
2017-Sep-10 20:30N 38°58' W 090°24'2 4.9
2017-Sep-10 20:00N 38°57' W 090°27'2 4.9
2017-Sep-10 19:30N 38°56' W 090°30'  
Track history (hours):
 
Tides and Currents Weather Stations Pressure Air Temp Water Temp Dewpoint Dewpoint Depression Visibility Wind Speed Wind Dir Waves Ship Positions

Richard E. Waugh

Owner: Ingram Barge Company LLC, Nashville, TN. More information available from US FCC via Universal Licensing System and Coast Guard Vessel Documentation Center.

Last reported at 2017-Sep-19 18:55 UTC. Time now 2017-Sep-25 00:36 UTC.
Position N 41°07' W 090°58'.

Length 48 m; draft 3 m.

Type: Towing. MMSI: 366963390.

Date/timePositionNaut miles runAvg speedWind from/ knotsBaromVisibWave heightAir tempDewpointWater temp
2017-Sep-19 18:55N 41°07' W 090°58'2 3.7
2017-Sep-19 18:30N 41°06' W 090°57'3 3.5
2017-Sep-19 17:45N 41°04' W 090°57'1 3.6
2017-Sep-19 17:26N 41°02' W 090°56'2 3.7
2017-Sep-19 16:58N 41°01' W 090°57'2 3.5
2017-Sep-19 16:30N 40°59' W 090°57'2 3.3
2017-Sep-19 16:00N 40°58' W 090°57'2 4.0
2017-Sep-19 15:30N 40°56' W 090°58'2 3.8
2017-Sep-19 15:00N 40°55' W 090°60'2 3.9
2017-Sep-19 14:30N 40°53' W 091°01'0 0.2
2017-Sep-19 14:00N 40°53' W 091°01'0 0.0
2017-Sep-19 13:30N 40°53' W 091°01'0 0.0
2017-Sep-19 13:00N 40°53' W 091°01'0 0.0
2017-Sep-19 12:30N 40°53' W 091°01'0 0.0
2017-Sep-19 12:00N 40°53' W 091°01'0 0.0
2017-Sep-19 11:30N 40°53' W 091°01'0 0.0
2017-Sep-19 11:00N 40°53' W 091°01'0 0.0
2017-Sep-19 10:30N 40°53' W 091°01'  
2017-Sep-14 04:14N 38°55' W 090°17'1 5.5
2017-Sep-14 04:00N 38°55' W 090°19'3 5.9
2017-Sep-14 03:30N 38°57' W 090°22'3 6.0
2017-Sep-14 03:00N 38°58' W 090°26'3 5.3
2017-Sep-14 02:30N 38°58' W 090°29'2 4.3
2017-Sep-14 02:00N 38°57' W 090°32'1 0.2
2017-Sep-13 17:47N 38°58' W 090°33'0 0.1
2017-Sep-13 17:30N 38°58' W 090°33'0 0.0
2017-Sep-13 17:00N 38°58' W 090°33'0 0.4
2017-Sep-13 16:30N 38°58' W 090°33'2 4.0
2017-Sep-13 16:00N 38°57' W 090°31'2 4.7
2017-Sep-13 15:30N 38°58' W 090°28'2 4.7
2017-Sep-13 15:00N 38°58' W 090°25'1 1.6
2017-Sep-13 14:30N 38°58' W 090°24'0 0.0
2017-Sep-13 14:00N 38°58' W 090°24'0 0.0
2017-Sep-13 13:30N 38°58' W 090°24'0 0.1
2017-Sep-13 13:00N 38°58' W 090°24'0 0.6
2017-Sep-13 12:30N 38°58' W 090°24'1 2.2
2017-Sep-13 12:00N 38°57' W 090°22'1 2.5
2017-Sep-13 11:30N 38°57' W 090°21'2 2.6
2017-Sep-13 10:53N 38°56' W 090°19'1 2.5
2017-Sep-13 10:30N 38°55' W 090°18'  
2017-Sep-10 21:40N 38°55' W 090°17'1 5.1
2017-Sep-10 21:30N 38°55' W 090°18'2 4.9
2017-Sep-10 21:00N 38°57' W 090°21'3 5.2
2017-Sep-10 20:30N 38°58' W 090°24'2 4.9
2017-Sep-10 20:00N 38°57' W 090°27'2 4.9
2017-Sep-10 19:30N 38°56' W 090°30'  

Dump ship's entire track history